Time;durP1;ratioP1;P1;durP2;ratioP2;P2;SDS_P1;SDS_P2;PMS_P1;PMS_P2;Temp;Humidity;BMP_temperature;BMP_pressure;BME280_temperature;BME280_humidity;BME280_pressure;Samples;Min_cycle;Max_cycle;Signal;HPM_P1;HPM_P2
2021/10/15 00:02:17;;;;;;;6.40;4.23;;;;;;;;;;5013110;28;20435;-64
2021/10/15 00:04:43;;;;;;;7.67;4.47;;;;;;;;;;5013049;28;20414;-64
2021/10/15 00:07:10;;;;;;;4.47;4.07;;;;;;;;;;5013211;28;20410;-64
2021/10/15 00:09:36;;;;;;;6.03;4.23;;;;;;;;;;5013294;28;20418;-64
2021/10/15 00:12:03;;;;;;;4.80;4.20;;;;;;;;;;5011646;28;20427;-64
2021/10/15 00:14:29;;;;;;;4.57;4.10;;;;;;;;;;5012905;28;20403;-64
2021/10/15 00:16:55;;;;;;;4.23;3.70;;;;;;;;;;5013107;28;20491;-64
2021/10/15 00:19:22;;;;;;;5.73;4.33;;;;;;;;;;5013150;28;20426;-64
2021/10/15 00:21:48;;;;;;;5.53;4.60;;;;;;;;;;5013004;28;20438;-64
2021/10/15 00:24:14;;;;;;;5.83;4.10;;;;;;;;;;5013221;28;20432;-64
2021/10/15 00:26:40;;;;;;;5.60;4.17;;;;;;;;;;5012720;28;20407;-64
2021/10/15 00:29:08;;;;;;;9.57;4.97;;;;;;;;;;5012605;28;20412;-64
2021/10/15 00:31:35;;;;;;;5.90;3.87;;;;;;;;;;5050954;28;20436;-64
2021/10/15 00:34:01;;;;;;;4.47;3.90;;;;;;;;;;5052503;28;20398;-64
2021/10/15 00:36:27;;;;;;;6.53;4.23;;;;;;;;;;5052548;28;20461;-64
2021/10/15 00:38:54;;;;;;;5.40;4.30;;;;;;;;;;5052378;28;20452;-64
2021/10/15 00:41:20;;;;;;;8.00;5.10;;;;;;;;;;5052242;28;20478;-64
2021/10/15 00:44:04;;;;;;;5.53;4.13;;;;;;;;;;5052648;28;20406;-64
2021/10/15 00:46:30;;;;;;;5.97;4.10;;;;;;;;;;5052644;28;20451;-64
2021/10/15 00:48:57;;;;;;;5.27;4.27;;;;;;;;;;5054941;28;20757;-64
2021/10/15 00:51:24;;;;;;;7.60;4.10;;;;;;;;;;5055815;28;20420;-64
2021/10/15 00:53:50;;;;;;;5.13;3.93;;;;;;;;;;5055869;28;20409;-64
2021/10/15 00:56:16;;;;;;;4.13;3.73;;;;;;;;;;5055880;28;20860;-64
2021/10/15 00:58:43;;;;;;;5.20;3.80;;;;;;;;;;5056090;28;20401;-64
2021/10/15 01:01:09;;;;;;;5.20;3.53;;;;;;;;;;5055882;28;20834;-64
2021/10/15 01:03:35;;;;;;;4.67;3.70;;;;;;;;;;5055628;28;20910;-64
2021/10/15 01:06:02;;;;;;;5.07;3.50;;;;;;;;;;5055579;28;20394;-64
2021/10/15 01:08:28;;;;;;;4.77;3.93;;;;;;;;;;5055604;28;20410;-64
2021/10/15 01:10:55;;;;;;;6.23;3.30;;;;;;;;;;5055556;28;20493;-64
2021/10/15 01:13:22;;;;;;;7.00;3.33;;;;;;;;;;5055693;28;20757;-64
2021/10/15 01:15:48;;;;;;;4.20;3.60;;;;;;;;;;5055404;28;20836;-64
2021/10/15 01:18:14;;;;;;;4.00;3.20;;;;;;;;;;5055650;28;20851;-64
2021/10/15 01:20:42;;;;;;;5.57;4.07;;;;;;;;;;5055460;28;20428;-64
2021/10/15 01:23:08;;;;;;;3.30;2.70;;;;;;;;;;5055692;28;20814;-64
2021/10/15 01:25:35;;;;;;;3.87;2.80;;;;;;;;;;5055273;28;20416;-64
2021/10/15 01:28:01;;;;;;;5.33;3.70;;;;;;;;;;5055472;28;20398;-64
2021/10/15 01:30:27;;;;;;;5.00;4.30;;;;;;;;;;5020356;28;20431;-64
2021/10/15 01:32:54;;;;;;;6.90;3.97;;;;;;;;;;5015500;28;20434;-64
2021/10/15 01:35:20;;;;;;;5.63;3.70;;;;;;;;;;5015378;28;20451;-64
2021/10/15 01:37:46;;;;;;;5.10;3.43;;;;;;;;;;5015629;28;20738;-64
2021/10/15 01:40:12;;;;;;;6.10;4.07;;;;;;;;;;5015513;28;20903;-64
2021/10/15 01:42:54;;;;;;;3.87;3.47;;;;;;;;;;5015298;28;20395;-64
2021/10/15 01:45:20;;;;;;;5.40;3.03;;;;;;;;;;5015267;28;20898;-64
2021/10/15 01:47:46;;;;;;;7.20;3.30;;;;;;;;;;5015133;28;20503;-63
2021/10/15 01:50:12;;;;;;;4.67;3.40;;;;;;;;;;5013844;28;20516;-64
2021/10/15 01:52:38;;;;;;;4.80;2.67;;;;;;;;;;5021910;28;20552;-63
2021/10/15 01:55:08;;;;;;;3.37;2.60;;;;;;;;;;5034879;28;20454;-63
2021/10/15 01:57:34;;;;;;;4.47;3.17;;;;;;;;;;5034845;28;20402;-63
2021/10/15 02:00:00;;;;;;;14.53;3.10;;;;;;;;;;5034121;28;20504;-63
2021/10/15 02:02:26;;;;;;;3.50;2.90;;;;;;;;;;5034640;28;20879;-63
2021/10/15 02:04:52;;;;;;;4.30;3.33;;;;;;;;;;5034580;28;20453;-63
2021/10/15 02:07:19;;;;;;;6.70;3.30;;;;;;;;;;5034795;28;20830;-63
2021/10/15 02:09:45;;;;;;;6.80;3.40;;;;;;;;;;5034437;28;20867;-63
2021/10/15 02:12:11;;;;;;;3.37;2.90;;;;;;;;;;5034411;28;20501;-63
2021/10/15 02:14:37;;;;;;;3.83;3.03;;;;;;;;;;5034729;28;20740;-63
2021/10/15 02:17:04;;;;;;;4.23;2.80;;;;;;;;;;5034244;28;20466;-63
2021/10/15 02:19:30;;;;;;;4.30;3.10;;;;;;;;;;5034295;28;20482;-63
2021/10/15 02:21:56;;;;;;;4.47;2.60;;;;;;;;;;5034175;28;20395;-63
2021/10/15 02:24:22;;;;;;;2.93;2.70;;;;;;;;;;5034312;28;20396;-63
2021/10/15 02:26:48;;;;;;;2.90;2.60;;;;;;;;;;5034134;28;20441;-63
2021/10/15 02:29:15;;;;;;;5.70;2.50;;;;;;;;;;5034052;28;20407;-63
2021/10/15 02:31:41;;;;;;;4.40;3.07;;;;;;;;;;5034218;28;20423;-64
2021/10/15 02:34:07;;;;;;;6.07;2.97;;;;;;;;;;5034089;28;20405;-64
2021/10/15 02:36:33;;;;;;;6.60;2.97;;;;;;;;;;5034045;28;20515;-63
2021/10/15 02:38:59;;;;;;;3.10;2.43;;;;;;;;;;5034183;28;20434;-63
2021/10/15 02:41:25;;;;;;;3.73;2.73;;;;;;;;;;5034322;28;20415;-63
2021/10/15 02:43:51;;;;;;;3.33;2.97;;;;;;;;;;5033849;28;20395;-63
2021/10/15 02:46:17;;;;;;;3.40;3.10;;;;;;;;;;5033837;28;20441;-63
2021/10/15 02:48:44;;;;;;;4.00;3.00;;;;;;;;;;5032857;28;20439;-64
2021/10/15 02:51:11;;;;;;;4.23;3.50;;;;;;;;;;5033851;28;20426;-64
2021/10/15 02:53:38;;;;;;;4.77;3.07;;;;;;;;;;5033663;28;20449;-64
2021/10/15 02:56:04;;;;;;;4.23;3.20;;;;;;;;;;5014964;28;20506;-64
2021/10/15 02:58:30;;;;;;;3.03;2.57;;;;;;;;;;5014157;28;20511;-65
2021/10/15 03:00:56;;;;;;;4.47;2.87;;;;;;;;;;5014018;28;20438;-64
2021/10/15 03:03:22;;;;;;;3.17;2.87;;;;;;;;;;5014158;28;20489;-64
2021/10/15 03:05:48;;;;;;;4.83;2.83;;;;;;;;;;5013942;28;20410;-64
2021/10/15 03:08:14;;;;;;;3.57;3.20;;;;;;;;;;5013761;28;20798;-64
2021/10/15 03:10:40;;;;;;;5.90;3.47;;;;;;;;;;5013178;28;20470;-64
2021/10/15 03:13:07;;;;;;;4.47;2.90;;;;;;;;;;5013116;28;20395;-64
2021/10/15 03:15:33;;;;;;;9.50;2.67;;;;;;;;;;5013585;28;20459;-64
2021/10/15 03:17:59;;;;;;;3.70;3.13;;;;;;;;;;5013641;28;20400;-64
2021/10/15 03:20:25;;;;;;;5.07;4.17;;;;;;;;;;5013722;28;20419;-64
2021/10/15 03:22:51;;;;;;;4.50;3.13;;;;;;;;;;5019646;28;20428;-64
2021/10/15 03:25:17;;;;;;;4.90;3.10;;;;;;;;;;5033208;28;20403;-64
2021/10/15 03:27:43;;;;;;;4.70;3.47;;;;;;;;;;5033022;28;20406;-64
2021/10/15 03:30:09;;;;;;;8.50;3.70;;;;;;;;;;5032820;28;20427;-64
2021/10/15 03:32:35;;;;;;;4.70;3.80;;;;;;;;;;5033437;28;20441;-64
2021/10/15 03:35:02;;;;;;;5.17;3.77;;;;;;;;;;5033251;28;20411;-64
2021/10/15 03:37:28;;;;;;;7.80;3.83;;;;;;;;;;5033161;28;20399;-64
2021/10/15 03:39:54;;;;;;;4.47;3.10;;;;;;;;;;5033293;28;20465;-64
2021/10/15 03:42:20;;;;;;;8.90;4.73;;;;;;;;;;5034200;28;20767;-64
2021/10/15 03:44:46;;;;;;;5.70;3.57;;;;;;;;;;5031874;28;20489;-64
2021/10/15 03:47:13;;;;;;;5.43;4.30;;;;;;;;;;5033111;28;20402;-64
2021/10/15 03:49:39;;;;;;;8.13;6.07;;;;;;;;;;5033001;28;20452;-64
2021/10/15 03:52:05;;;;;;;10.47;6.13;;;;;;;;;;5033251;28;20403;-64
2021/10/15 03:54:32;;;;;;;7.30;5.07;;;;;;;;;;5032941;28;20485;-64
2021/10/15 03:56:58;;;;;;;5.80;3.77;;;;;;;;;;5033049;28;20450;-64
2021/10/15 03:59:24;;;;;;;6.87;3.27;;;;;;;;;;5032924;28;20418;-64
2021/10/15 04:01:50;;;;;;;4.30;3.60;;;;;;;;;;5032759;28;20417;-64
2021/10/15 04:04:16;;;;;;;6.77;4.00;;;;;;;;;;5032931;28;20487;-64
2021/10/15 04:06:42;;;;;;;4.27;2.90;;;;;;;;;;5033028;28;20399;-64
2021/10/15 04:09:08;;;;;;;5.07;2.80;;;;;;;;;;5031053;28;20399;-63
2021/10/15 04:11:34;;;;;;;6.30;3.60;;;;;;;;;;5012494;28;20825;-64
2021/10/15 04:14:00;;;;;;;5.50;3.50;;;;;;;;;;5013031;28;20415;-64
2021/10/15 04:16:26;;;;;;;6.40;4.10;;;;;;;;;;5013371;28;20563;-64
2021/10/15 04:18:52;;;;;;;10.97;5.40;;;;;;;;;;5013317;28;20826;-63
2021/10/15 04:21:18;;;;;;;11.70;5.37;;;;;;;;;;5013052;28;20474;-63
2021/10/15 04:23:45;;;;;;;7.93;3.87;;;;;;;;;;5015321;28;20467;-64
2021/10/15 04:26:11;;;;;;;10.43;4.20;;;;;;;;;;5016823;28;20820;-64
2021/10/15 04:28:37;;;;;;;6.37;4.10;;;;;;;;;;5016354;28;20498;-64
2021/10/15 04:31:03;;;;;;;5.27;3.20;;;;;;;;;;5016741;28;20484;-64
2021/10/15 04:33:29;;;;;;;8.13;3.27;;;;;;;;;;5016349;28;20426;-63
2021/10/15 04:35:55;;;;;;;6.00;3.63;;;;;;;;;;5016313;28;20597;-64
2021/10/15 04:38:21;;;;;;;8.97;4.13;;;;;;;;;;5016433;28;20402;-64
2021/10/15 04:40:47;;;;;;;7.97;4.00;;;;;;;;;;5016405;28;20963;-64
2021/10/15 04:43:13;;;;;;;5.57;3.47;;;;;;;;;;5016481;28;20396;-64
2021/10/15 04:45:39;;;;;;;4.30;2.60;;;;;;;;;;5016420;28;20465;-63
2021/10/15 04:48:05;;;;;;;3.20;2.50;;;;;;;;;;5016616;28;20469;-63
2021/10/15 04:50:36;;;;;;;3.50;2.23;;;;;;;;;;5016251;28;20477;-63
2021/10/15 04:53:03;;;;;;;4.30;2.93;;;;;;;;;;5016489;28;20749;-63
2021/10/15 04:55:29;;;;;;;4.70;2.60;;;;;;;;;;5016377;28;20457;-63
2021/10/15 04:57:57;;;;;;;3.13;2.40;;;;;;;;;;5016186;28;20423;-64
2021/10/15 05:00:23;;;;;;;2.87;2.50;;;;;;;;;;5016125;28;20446;-64
2021/10/15 05:02:51;;;;;;;4.70;2.70;;;;;;;;;;5016138;28;20840;-64
2021/10/15 05:05:24;;;;;;;4.07;2.77;;;;;;;;;;5015968;28;20396;-64
2021/10/15 05:07:51;;;;;;;2.70;2.23;;;;;;;;;;5016088;28;20966;-64
2021/10/15 05:10:17;;;;;;;4.87;2.60;;;;;;;;;;5015677;28;20796;-65
2021/10/15 05:12:43;;;;;;;3.40;2.80;;;;;;;;;;5015741;28;20400;-64
2021/10/15 05:15:12;;;;;;;3.57;2.67;;;;;;;;;;5015912;28;20447;-64
2021/10/15 05:17:39;;;;;;;8.07;3.07;;;;;;;;;;5016002;28;20396;-64
2021/10/15 05:20:06;;;;;;;3.70;2.30;;;;;;;;;;5016008;28;20506;-64
2021/10/15 05:22:32;;;;;;;3.07;2.10;;;;;;;;;;5015935;28;20495;-64
2021/10/15 05:24:58;;;;;;;4.20;3.00;;;;;;;;;;5015526;28;20395;-64
2021/10/15 05:27:24;;;;;;;5.50;3.20;;;;;;;;;;5016877;28;20403;-64
2021/10/15 05:29:50;;;;;;;4.17;2.93;;;;;;;;;;5055092;28;20497;-64
2021/10/15 05:32:17;;;;;;;6.37;2.63;;;;;;;;;;5055496;28;20434;-64
2021/10/15 05:34:43;;;;;;;3.23;2.47;;;;;;;;;;5054563;28;20395;-64
2021/10/15 05:37:09;;;;;;;4.50;2.63;;;;;;;;;;5055060;28;20445;-64
2021/10/15 05:39:35;;;;;;;5.43;3.50;;;;;;;;;;5055137;28;20410;-63
2021/10/15 05:42:02;;;;;;;5.80;2.63;;;;;;;;;;5055488;28;20425;-64
2021/10/15 05:44:28;;;;;;;4.87;3.50;;;;;;;;;;5054952;28;20803;-64
2021/10/15 05:46:54;;;;;;;4.67;2.57;;;;;;;;;;5054739;28;20432;-64
2021/10/15 05:49:20;;;;;;;7.60;2.50;;;;;;;;;;5055053;28;20410;-63
2021/10/15 05:51:50;;;;;;;4.30;3.50;;;;;;;;;;5054761;28;20414;-63
2021/10/15 05:54:25;;;;;;;3.90;2.80;;;;;;;;;;5055006;28;20797;-64
2021/10/15 05:59:36;;;;;;;3.47;2.70;;;;;;;;;;5054856;28;20898;-64
2021/10/15 06:02:05;;;;;;;4.70;2.60;;;;;;;;;;5054546;28;20385;-64
2021/10/15 06:15:27;;;;;;;4.37;3.00;;;;;;;;;;5014445;28;20485;-64
2021/10/15 06:17:53;;;;;;;4.87;2.80;;;;;;;;;;5014572;28;20915;-64
2021/10/15 06:20:19;;;;;;;3.47;2.37;;;;;;;;;;5014518;28;20507;-64
2021/10/15 06:22:45;;;;;;;3.80;2.57;;;;;;;;;;5014537;28;20400;-64
2021/10/15 06:25:11;;;;;;;4.47;3.20;;;;;;;;;;5014596;28;20403;-64
2021/10/15 06:27:37;;;;;;;4.47;3.30;;;;;;;;;;5014325;28;20483;-64
2021/10/15 06:30:04;;;;;;;6.50;3.00;;;;;;;;;;5032891;22;20469;-65
2021/10/15 06:32:30;;;;;;;5.87;3.87;;;;;;;;;;5056709;28;20771;-65
2021/10/15 06:34:56;;;;;;;6.30;3.80;;;;;;;;;;5053953;28;20752;-65
2021/10/15 06:37:22;;;;;;;8.07;3.77;;;;;;;;;;5043316;28;20417;-63
2021/10/15 06:39:48;;;;;;;11.20;5.13;;;;;;;;;;5054078;28;20398;-64
2021/10/15 06:42:14;;;;;;;10.50;5.73;;;;;;;;;;5053955;28;20809;-65
2021/10/15 06:44:40;;;;;;;5.20;3.67;;;;;;;;;;5054088;28;20413;-65
2021/10/15 06:47:06;;;;;;;4.17;3.10;;;;;;;;;;5053883;28;20487;-65
2021/10/15 06:49:32;;;;;;;11.00;3.97;;;;;;;;;;5053259;28;20434;-65
2021/10/15 06:51:58;;;;;;;3.90;2.50;;;;;;;;;;5044044;28;20441;-65
2021/10/15 06:54:24;;;;;;;6.07;3.50;;;;;;;;;;5048017;28;20416;-65
2021/10/15 06:56:51;;;;;;;5.33;3.13;;;;;;;;;;5052812;28;20532;-65
2021/10/15 06:59:17;;;;;;;6.40;3.20;;;;;;;;;;5043221;28;21071;-64
2021/10/15 07:01:43;;;;;;;5.13;2.83;;;;;;;;;;5051279;28;20483;-66
2021/10/15 07:04:09;;;;;;;5.00;3.17;;;;;;;;;;5046622;28;20418;-65
2021/10/15 07:06:35;;;;;;;5.00;2.30;;;;;;;;;;5051644;28;20460;-65
2021/10/15 07:09:03;;;;;;;5.87;4.07;;;;;;;;;;5044496;28;20453;-65
2021/10/15 07:11:30;;;;;;;4.27;2.37;;;;;;;;;;5047767;28;20500;-66
2021/10/15 07:13:57;;;;;;;4.23;2.40;;;;;;;;;;5050864;28;20406;-66
2021/10/15 07:16:23;;;;;;;7.90;2.37;;;;;;;;;;5051942;28;20617;-65
2021/10/15 07:18:49;;;;;;;6.30;2.70;;;;;;;;;;5050639;28;20425;-65
2021/10/15 07:21:15;;;;;;;3.60;2.07;;;;;;;;;;5051611;28;20433;-65
2021/10/15 07:23:41;;;;;;;2.80;1.70;;;;;;;;;;5052343;28;20467;-65
2021/10/15 07:26:10;;;;;;;2.53;2.33;;;;;;;;;;5051245;28;20421;-66
2021/10/15 07:28:36;;;;;;;4.33;2.10;;;;;;;;;;5051480;28;20430;-69
2021/10/15 07:31:02;;;;;;;2.33;1.80;;;;;;;;;;5051198;28;20487;-67
2021/10/15 07:33:28;;;;;;;2.93;2.00;;;;;;;;;;5050417;28;20425;-66
2021/10/15 07:35:54;;;;;;;5.53;2.30;;;;;;;;;;5051167;28;20456;-67
2021/10/15 07:38:20;;;;;;;3.53;2.10;;;;;;;;;;5051295;28;20451;-67
2021/10/15 07:40:46;;;;;;;2.77;2.10;;;;;;;;;;5050885;28;20582;-67
2021/10/15 07:43:12;;;;;;;5.63;2.30;;;;;;;;;;5045289;28;20430;-67
2021/10/15 07:45:39;;;;;;;2.73;1.80;;;;;;;;;;5049373;28;20505;-67
2021/10/15 07:48:05;;;;;;;2.57;2.27;;;;;;;;;;5056103;28;20429;-68
2021/10/15 07:50:31;;;;;;;5.63;3.40;;;;;;;;;;5054483;28;20437;-70
2021/10/15 07:52:57;;;;;;;3.27;2.50;;;;;;;;;;5050774;28;20418;-67
2021/10/15 07:55:23;;;;;;;3.13;2.17;;;;;;;;;;5051920;28;20507;-67
2021/10/15 07:57:49;;;;;;;3.53;2.40;;;;;;;;;;5052318;28;20832;-66
2021/10/15 08:00:17;;;;;;;5.03;2.60;;;;;;;;;;5055134;28;20441;-64
2021/10/15 08:02:43;;;;;;;4.17;2.33;;;;;;;;;;5038012;28;20960;-65
2021/10/15 08:05:14;;;;;;;3.57;2.30;;;;;;;;;;5056033;28;20893;-66
2021/10/15 08:07:40;;;;;;;2.83;2.20;;;;;;;;;;5055446;28;20793;-66
2021/10/15 08:10:07;;;;;;;3.63;3.03;;;;;;;;;;5053956;28;20433;-65
2021/10/15 08:12:33;;;;;;;3.43;2.10;;;;;;;;;;5055153;28;20421;-66
2021/10/15 08:14:59;;;;;;;3.10;2.30;;;;;;;;;;5053995;28;20416;-66
2021/10/15 08:17:25;;;;;;;3.00;2.30;;;;;;;;;;5046995;28;20492;-66
2021/10/15 08:19:51;;;;;;;3.53;2.63;;;;;;;;;;5055043;28;20425;-65
2021/10/15 08:22:17;;;;;;;3.13;2.43;;;;;;;;;;5055285;28;20421;-66
2021/10/15 08:24:43;;;;;;;3.63;2.70;;;;;;;;;;5055377;28;20409;-66
2021/10/15 08:27:09;;;;;;;2.63;2.10;;;;;;;;;;5055532;28;20422;-66
2021/10/15 08:29:38;;;;;;;3.20;2.00;;;;;;;;;;5055130;28;20418;-65
2021/10/15 08:32:05;;;;;;;4.50;2.40;;;;;;;;;;5053226;28;20460;-65
2021/10/15 08:34:31;;;;;;;3.87;2.70;;;;;;;;;;5053873;28;20902;-65
2021/10/15 08:36:57;;;;;;;3.00;2.40;;;;;;;;;;5055470;28;20453;-65
2021/10/15 08:39:26;;;;;;;2.43;1.80;;;;;;;;;;5054440;28;20449;-65
2021/10/15 08:41:53;;;;;;;2.50;2.10;;;;;;;;;;5054810;28;20429;-65
2021/10/15 08:44:19;;;;;;;3.30;2.40;;;;;;;;;;5053047;28;20422;-65
2021/10/15 08:46:45;;;;;;;3.40;1.90;;;;;;;;;;5053216;28;20429;-65
2021/10/15 08:49:11;;;;;;;3.43;1.97;;;;;;;;;;5054884;28;20496;-65
2021/10/15 08:51:38;;;;;;;2.50;1.77;;;;;;;;;;5054279;28;20483;-66
2021/10/15 08:54:05;;;;;;;3.00;2.10;;;;;;;;;;5053935;28;20425;-66
2021/10/15 08:56:31;;;;;;;2.23;1.90;;;;;;;;;;5054122;28;20507;-66
2021/10/15 08:58:59;;;;;;;2.20;1.60;;;;;;;;;;5054571;28;20424;-65
2021/10/15 09:01:27;;;;;;;2.93;2.00;;;;;;;;;;5054605;28;20480;-67
2021/10/15 09:04:03;;;;;;;2.60;1.80;;;;;;;;;;5050523;28;20426;-65
2021/10/15 09:06:34;;;;;;;2.87;1.90;;;;;;;;;;5047720;28;20706;-65
2021/10/15 09:09:00;;;;;;;4.00;2.13;;;;;;;;;;5045402;28;20405;-66
2021/10/15 09:11:32;;;;;;;3.73;1.77;;;;;;;;;;5046349;28;20449;-67
2021/10/15 09:14:04;;;;;;;2.63;1.60;;;;;;;;;;5050365;28;20524;-67
2021/10/15 09:16:50;;;;;;;4.27;1.90;;;;;;;;;;5052370;28;20468;-67
2021/10/15 09:19:27;;;;;;;3.10;2.00;;;;;;;;;;5050829;28;20509;-67
2021/10/15 09:22:07;;;;;;;2.60;1.60;;;;;;;;;;5036483;28;20436;-65
2021/10/15 09:24:38;;;;;;;3.27;1.90;;;;;;;;;;5053888;28;20445;-67
2021/10/15 09:27:24;;;;;;;2.90;2.00;;;;;;;;;;5052464;28;20758;-66
2021/10/15 09:29:50;;;;;;;5.37;2.07;;;;;;;;;;5046919;28;20437;-66
2021/10/15 09:32:16;;;;;;;4.87;1.90;;;;;;;;;;5052267;28;20513;-67
2021/10/15 09:34:43;;;;;;;2.87;2.00;;;;;;;;;;5052892;28;20929;-66
2021/10/15 09:37:13;;;;;;;3.03;2.30;;;;;;;;;;5044715;28;20457;-66
2021/10/15 09:39:40;;;;;;;3.73;2.10;;;;;;;;;;5051663;28;20425;-67
2021/10/15 09:42:15;;;;;;;2.87;2.17;;;;;;;;;;5053821;28;20429;-67
2021/10/15 09:44:42;;;;;;;3.50;2.37;;;;;;;;;;5045698;28;20742;-65
2021/10/15 09:47:18;;;;;;;4.97;2.83;;;;;;;;;;5053252;28;20426;-67
2021/10/15 09:49:50;;;;;;;6.93;2.60;;;;;;;;;;5054551;28;20433;-66
2021/10/15 09:52:27;;;;;;;5.10;3.00;;;;;;;;;;5053822;28;20501;-67
2021/10/15 09:54:57;;;;;;;4.00;2.40;;;;;;;;;;5052820;28;20897;-67
2021/10/15 09:57:37;;;;;;;3.20;2.87;;;;;;;;;;5052750;28;20989;-65
2021/10/15 10:00:05;;;;;;;8.80;2.57;;;;;;;;;;5053244;28;20492;-65
2021/10/15 10:02:31;;;;;;;3.40;1.87;;;;;;;;;;5052561;28;20438;-66
2021/10/15 10:04:58;;;;;;;3.43;2.43;;;;;;;;;;5053046;28;20512;-66
2021/10/15 10:07:24;;;;;;;3.20;2.13;;;;;;;;;;5051759;28;20405;-67
2021/10/15 10:09:51;;;;;;;3.73;2.90;;;;;;;;;;5053270;28;20405;-67
2021/10/15 10:12:17;;;;;;;3.03;2.30;;;;;;;;;;5050866;28;20417;-66
2021/10/15 10:14:43;;;;;;;3.90;2.33;;;;;;;;;;5055343;28;20412;-67
2021/10/15 10:17:11;;;;;;;3.80;1.90;;;;;;;;;;5050552;28;20445;-67
2021/10/15 10:19:39;;;;;;;4.07;2.23;;;;;;;;;;5051030;28;20417;-67
2021/10/15 10:22:05;;;;;;;4.93;2.23;;;;;;;;;;5051588;28;20567;-66
2021/10/15 10:24:33;;;;;;;3.73;2.40;;;;;;;;;;5057054;28;20406;-66
2021/10/15 10:26:59;;;;;;;5.50;2.40;;;;;;;;;;5053565;28;20417;-66
2021/10/15 10:29:27;;;;;;;5.83;2.43;;;;;;;;;;5052879;28;20414;-66
2021/10/15 10:31:54;;;;;;;4.50;2.20;;;;;;;;;;5052118;28;20452;-66
2021/10/15 10:34:24;;;;;;;3.47;2.03;;;;;;;;;;5052844;28;20409;-66
2021/10/15 10:37:22;;;;;;;3.40;1.97;;;;;;;;;;5051482;28;20507;-66
2021/10/15 10:40:04;;;;;;;3.50;2.10;;;;;;;;;;4984840;28;20505;-66
2021/10/15 10:42:30;;;;;;;3.00;2.23;;;;;;;;;;5051392;28;20485;-66
2021/10/15 10:44:56;;;;;;;4.83;3.17;;;;;;;;;;5051057;28;20452;-66
2021/10/15 10:47:26;;;;;;;2.70;1.93;;;;;;;;;;5051861;28;20410;-66
2021/10/15 10:50:01;;;;;;;3.50;2.50;;;;;;;;;;5052462;28;20445;-66
2021/10/15 10:52:27;;;;;;;3.20;2.70;;;;;;;;;;5052529;28;20496;-66
2021/10/15 10:54:53;;;;;;;3.50;2.50;;;;;;;;;;5052980;28;20509;-65
2021/10/15 10:57:23;;;;;;;4.10;2.30;;;;;;;;;;5045670;28;20535;-66
2021/10/15 10:59:51;;;;;;;3.73;2.20;;;;;;;;;;5033749;28;20409;-65
2021/10/15 11:02:19;;;;;;;5.07;2.37;;;;;;;;;;5033125;28;20434;-66
2021/10/15 11:04:45;;;;;;;8.67;2.37;;;;;;;;;;5033654;28;20409;-66
2021/10/15 11:07:19;;;;;;;4.00;2.50;;;;;;;;;;5033493;28;20418;-66
2021/10/15 11:09:49;;;;;;;3.30;2.20;;;;;;;;;;5038265;28;20444;-67
2021/10/15 11:12:21;;;;;;;4.23;2.57;;;;;;;;;;5048484;28;20420;-67
2021/10/15 11:15:02;;;;;;;3.00;2.00;;;;;;;;;;5052882;28;20432;-67
2021/10/15 11:17:34;;;;;;;3.67;2.27;;;;;;;;;;5051825;28;20479;-67
2021/10/15 11:20:07;;;;;;;4.40;2.57;;;;;;;;;;5052260;28;20398;-67
2021/10/15 11:22:33;;;;;;;3.97;2.50;;;;;;;;;;5043596;28;20437;-67
2021/10/15 11:24:59;;;;;;;3.30;2.33;;;;;;;;;;5052022;28;20491;-67
2021/10/15 11:27:25;;;;;;;3.23;2.07;;;;;;;;;;5052033;28;20409;-67
2021/10/15 11:29:53;;;;;;;3.73;2.27;;;;;;;;;;5050512;28;20425;-67
2021/10/15 11:32:29;;;;;;;6.50;2.90;;;;;;;;;;5047770;28;20423;-66
2021/10/15 11:35:06;;;;;;;3.17;1.97;;;;;;;;;;5034744;28;20417;-67
2021/10/15 11:37:50;;;;;;;2.83;2.23;;;;;;;;;;5052443;28;20421;-67
2021/10/15 11:40:16;;;;;;;5.50;2.43;;;;;;;;;;5052176;28;20517;-67
2021/10/15 11:42:42;;;;;;;4.93;2.77;;;;;;;;;;5048248;28;20468;-67
2021/10/15 11:45:25;;;;;;;4.20;3.03;;;;;;;;;;5052216;28;20414;-67
2021/10/15 11:48:01;;;;;;;3.10;2.20;;;;;;;;;;5042204;28;20432;-67
2021/10/15 11:50:35;;;;;;;3.37;2.17;;;;;;;;;;5049943;28;20441;-67
2021/10/15 11:53:01;;;;;;;3.30;2.50;;;;;;;;;;5051138;28;20460;-67
2021/10/15 11:55:37;;;;;;;3.27;2.07;;;;;;;;;;5051055;28;20549;-67
2021/10/15 11:58:23;;;;;;;4.70;2.30;;;;;;;;;;5052345;28;20512;-67
2021/10/15 12:01:14;;;;;;;4.90;2.53;;;;;;;;;;5051868;28;20433;-66
2021/10/15 12:03:43;;;;;;;5.17;2.73;;;;;;;;;;5039795;28;20767;-66
2021/10/15 12:06:13;;;;;;;5.07;2.47;;;;;;;;;;5049963;28;20923;-66
2021/10/15 12:08:40;;;;;;;4.37;3.00;;;;;;;;;;5047370;28;20444;-65
2021/10/15 12:11:11;;;;;;;2.70;2.20;;;;;;;;;;5050205;28;20441;-67
2021/10/15 12:13:37;;;;;;;3.40;1.97;;;;;;;;;;5051595;28;20406;-66
2021/10/15 12:16:16;;;;;;;5.10;2.77;;;;;;;;;;5051676;28;20454;-66
2021/10/15 12:18:42;;;;;;;3.50;2.30;;;;;;;;;;5052643;28;20766;-67
2021/10/15 12:21:12;;;;;;;4.00;2.87;;;;;;;;;;5051455;28;20818;-66
2021/10/15 12:23:51;;;;;;;7.13;2.90;;;;;;;;;;5052411;28;20410;-67
2021/10/15 12:26:18;;;;;;;3.00;1.97;;;;;;;;;;5051876;28;20425;-66
2021/10/15 12:28:45;;;;;;;5.00;2.90;;;;;;;;;;5052089;28;20535;-66
2021/10/15 12:31:31;;;;;;;4.50;2.73;;;;;;;;;;5051554;28;20465;-66
2021/10/15 12:34:08;;;;;;;4.17;2.67;;;;;;;;;;5043998;28;20926;-67
2021/10/15 12:36:35;;;;;;;3.60;2.63;;;;;;;;;;5046018;28;20456;-67
2021/10/15 12:39:20;;;;;;;5.17;3.43;;;;;;;;;;5052440;28;20413;-67
2021/10/15 12:41:47;;;;;;;3.30;2.30;;;;;;;;;;5050532;28;20514;-67
2021/10/15 12:44:20;;;;;;;5.00;2.70;;;;;;;;;;5052198;28;20422;-67
2021/10/15 12:46:56;;;;;;;3.40;2.33;;;;;;;;;;5055702;28;20441;-66
2021/10/15 12:49:22;;;;;;;3.70;2.50;;;;;;;;;;5052445;28;20775;-67
2021/10/15 12:51:48;;;;;;;3.73;2.33;;;;;;;;;;5054891;28;20472;-66
2021/10/15 12:54:34;;;;;;;3.30;2.93;;;;;;;;;;5053613;28;20784;-66
2021/10/15 12:57:10;;;;;;;5.17;2.93;;;;;;;;;;5055122;28;20540;-66
2021/10/15 12:59:36;;;;;;;5.43;2.80;;;;;;;;;;5055271;28;20412;-66
2021/10/15 13:02:06;;;;;;;4.30;2.87;;;;;;;;;;5054614;28;20456;-66
2021/10/15 13:04:33;;;;;;;3.70;2.50;;;;;;;;;;5054250;28;20441;-67
2021/10/15 13:07:00;;;;;;;3.80;2.70;;;;;;;;;;5036641;28;20414;-66
2021/10/15 13:09:26;;;;;;;4.07;2.80;;;;;;;;;;5049162;28;20978;-67
2021/10/15 13:11:52;;;;;;;5.13;2.70;;;;;;;;;;5054249;28;20785;-66
2021/10/15 13:14:18;;;;;;;3.10;2.10;;;;;;;;;;5036583;28;20413;-67
2021/10/15 13:16:44;;;;;;;3.80;2.90;;;;;;;;;;5055287;28;20442;-67
2021/10/15 13:19:10;;;;;;;2.90;2.30;;;;;;;;;;5053691;28;20405;-66
2021/10/15 13:21:36;;;;;;;5.40;2.60;;;;;;;;;;5053489;28;20433;-66
2021/10/15 13:24:02;;;;;;;5.27;3.43;;;;;;;;;;5054761;28;20398;-66
2021/10/15 13:26:28;;;;;;;3.60;2.20;;;;;;;;;;5054167;28;20406;-66
2021/10/15 13:28:54;;;;;;;3.70;2.23;;;;;;;;;;5054362;28;20417;-66
2021/10/15 13:31:20;;;;;;;4.20;2.17;;;;;;;;;;5054085;28;20558;-66
2021/10/15 13:33:46;;;;;;;4.80;2.90;;;;;;;;;;5053798;28;20914;-65
2021/10/15 13:36:12;;;;;;;3.97;2.90;;;;;;;;;;5050955;28;20461;-66
2021/10/15 13:38:39;;;;;;;5.53;3.20;;;;;;;;;;5052924;28;20410;-66
2021/10/15 13:41:13;;;;;;;3.80;2.70;;;;;;;;;;5048900;28;20423;-66
2021/10/15 13:51:23;;;;;;;2.67;2.10;;;;;;;;;;5054710;28;20475;-67
2021/10/15 13:53:49;;;;;;;3.00;1.90;;;;;;;;;;5052784;28;20418;-67
2021/10/15 13:56:16;;;;;;;3.60;2.60;;;;;;;;;;5052569;28;20498;-67
2021/10/15 13:58:49;;;;;;;7.13;3.67;;;;;;;;;;5048375;28;20428;-66
2021/10/15 14:01:31;;;;;;;3.90;2.83;;;;;;;;;;5054074;28;20466;-67
2021/10/15 14:06:26;;;;;;;4.17;1.83;;;;;;;;;;5049765;28;20417;-66
2021/10/15 14:08:53;;;;;;;2.53;1.87;;;;;;;;;;5052301;28;20413;-67
2021/10/15 14:11:20;;;;;;;4.23;2.10;;;;;;;;;;5051941;28;20473;-67
2021/10/15 14:13:46;;;;;;;3.10;2.10;;;;;;;;;;5048075;28;20425;-66
2021/10/15 14:16:18;;;;;;;3.10;2.10;;;;;;;;;;5057177;28;20946;-67
2021/10/15 14:18:45;;;;;;;2.90;2.20;;;;;;;;;;5053614;28;20402;-66
2021/10/15 14:21:12;;;;;;;3.33;2.47;;;;;;;;;;5053201;28;20476;-67
2021/10/15 14:23:38;;;;;;;3.80;2.50;;;;;;;;;;5052698;28;20921;-67
2021/10/15 14:26:05;;;;;;;5.47;2.47;;;;;;;;;;5052892;28;20413;-67
2021/10/15 14:28:32;;;;;;;4.50;2.60;;;;;;;;;;5051826;28;20410;-67
2021/10/15 14:30:58;;;;;;;3.50;2.60;;;;;;;;;;5052838;28;20516;-67
2021/10/15 14:33:25;;;;;;;5.47;2.90;;;;;;;;;;5052597;28;20972;-67
2021/10/15 14:35:51;;;;;;;5.50;2.80;;;;;;;;;;5053309;28;20453;-66
2021/10/15 14:38:17;;;;;;;4.20;2.80;;;;;;;;;;5052618;28;20504;-66
2021/10/15 14:40:46;;;;;;;3.90;2.67;;;;;;;;;;5052378;28;20433;-65
2021/10/15 14:43:12;;;;;;;3.70;2.50;;;;;;;;;;5052795;28;20493;-67
2021/10/15 14:45:39;;;;;;;7.23;2.80;;;;;;;;;;5047752;28;20413;-66
2021/10/15 14:48:05;;;;;;;3.17;2.67;;;;;;;;;;5049401;28;20425;-66
2021/10/15 14:50:31;;;;;;;5.57;3.70;;;;;;;;;;5053016;28;20465;-66
2021/10/15 14:52:58;;;;;;;4.30;2.80;;;;;;;;;;5052756;28;20450;-66
2021/10/15 14:55:26;;;;;;;3.97;2.60;;;;;;;;;;5052376;28;20421;-65
2021/10/15 14:57:52;;;;;;;3.07;1.93;;;;;;;;;;5052813;28;20453;-66
2021/10/15 15:00:18;;;;;;;3.53;2.13;;;;;;;;;;5053450;28;20422;-66
2021/10/15 15:02:45;;;;;;;5.03;3.30;;;;;;;;;;5053333;28;20413;-65
2021/10/15 15:05:11;;;;;;;3.50;2.40;;;;;;;;;;5052830;28;20413;-66
2021/10/15 15:07:37;;;;;;;5.20;2.73;;;;;;;;;;5051640;28;20428;-66
2021/10/15 15:10:04;;;;;;;3.47;2.30;;;;;;;;;;5052414;28;20758;-65
2021/10/15 15:12:31;;;;;;;3.47;2.30;;;;;;;;;;5052445;28;20472;-66